sensor_id;sensor_type;location;lat;lon;timestamp;pressure;altitude;pressure_sealevel;temperature
67599;BMP280;62026;39.230;9.122;2023-08-08T00:01:39;101167.97;;;22.03
67599;BMP280;62026;39.230;9.122;2023-08-08T00:04:09;101172.00;;;22.05
67599;BMP280;62026;39.230;9.122;2023-08-08T00:06:36;101167.69;;;22.04
67599;BMP280;62026;39.230;9.122;2023-08-08T00:09:03;101161.75;;;22.02
67599;BMP280;62026;39.230;9.122;2023-08-08T00:11:30;101156.38;;;22.02
67599;BMP280;62026;39.230;9.122;2023-08-08T00:13:57;101154.25;;;22.04
67599;BMP280;62026;39.230;9.122;2023-08-08T00:16:23;101151.00;;;22.02
67599;BMP280;62026;39.230;9.122;2023-08-08T00:18:49;101164.53;;;21.97
67599;BMP280;62026;39.230;9.122;2023-08-08T00:21:16;101154.28;;;21.94
67599;BMP280;62026;39.230;9.122;2023-08-08T00:23:42;101162.91;;;21.96
67599;BMP280;62026;39.230;9.122;2023-08-08T00:26:08;101166.41;;;21.86
67599;BMP280;62026;39.230;9.122;2023-08-08T00:28:34;101169.44;;;21.80
67599;BMP280;62026;39.230;9.122;2023-08-08T00:31:00;101160.03;;;21.77
67599;BMP280;62026;39.230;9.122;2023-08-08T00:33:26;101159.81;;;21.74
67599;BMP280;62026;39.230;9.122;2023-08-08T00:35:52;101159.50;;;21.70
67599;BMP280;62026;39.230;9.122;2023-08-08T00:38:18;101156.91;;;21.65
67599;BMP280;62026;39.230;9.122;2023-08-08T00:40:45;101163.56;;;21.68
67599;BMP280;62026;39.230;9.122;2023-08-08T00:43:11;101163.88;;;21.66
67599;BMP280;62026;39.230;9.122;2023-08-08T00:45:40;101161.97;;;21.67
67599;BMP280;62026;39.230;9.122;2023-08-08T00:48:07;101165.19;;;21.63
67599;BMP280;62026;39.230;9.122;2023-08-08T00:50:34;101162.25;;;21.60
67599;BMP280;62026;39.230;9.122;2023-08-08T00:53:04;101162.53;;;21.58
67599;BMP280;62026;39.230;9.122;2023-08-08T00:55:31;101155.59;;;21.57
67599;BMP280;62026;39.230;9.122;2023-08-08T00:57:57;101148.31;;;21.58
67599;BMP280;62026;39.230;9.122;2023-08-08T01:00:23;101155.59;;;21.57
67599;BMP280;62026;39.230;9.122;2023-08-08T01:02:49;101168.22;;;21.52
67599;BMP280;62026;39.230;9.122;2023-08-08T01:05:15;101157.72;;;21.50
67599;BMP280;62026;39.230;9.122;2023-08-08T01:08:21;101159.88;;;21.53
67599;BMP280;62026;39.230;9.122;2023-08-08T01:10:49;101157.72;;;21.50
67599;BMP280;62026;39.230;9.122;2023-08-08T01:13:22;101160.72;;;21.44
67599;BMP280;62026;39.230;9.122;2023-08-08T01:15:50;101162.06;;;21.41
67599;BMP280;62026;39.230;9.122;2023-08-08T01:18:18;101157.53;;;21.32
67599;BMP280;62026;39.230;9.122;2023-08-08T01:20:45;101158.63;;;21.26
67599;BMP280;62026;39.230;9.122;2023-08-08T01:23:24;101150.28;;;21.22
67599;BMP280;62026;39.230;9.122;2023-08-08T01:25:56;101144.91;;;21.22
67599;BMP280;62026;39.230;9.122;2023-08-08T01:28:24;101154.34;;;21.19
67599;BMP280;62026;39.230;9.122;2023-08-08T01:30:50;101149.50;;;21.21
67599;BMP280;62026;39.230;9.122;2023-08-08T01:33:18;101147.34;;;21.18
67599;BMP280;62026;39.230;9.122;2023-08-08T01:35:53;101148.41;;;21.22
67599;BMP280;62026;39.230;9.122;2023-08-08T01:38:38;101146.53;;;21.23
67599;BMP280;62026;39.230;9.122;2023-08-08T01:41:07;101143.28;;;21.26
67599;BMP280;62026;39.230;9.122;2023-08-08T01:43:35;101150.84;;;21.19
67599;BMP280;62026;39.230;9.122;2023-08-08T01:46:04;101158.38;;;21.17
67599;BMP280;62026;39.230;9.122;2023-08-08T01:48:31;101154.63;;;21.13
67599;BMP280;62026;39.230;9.122;2023-08-08T01:50:57;101155.16;;;21.20
67599;BMP280;62026;39.230;9.122;2023-08-08T01:53:23;101155.94;;;21.10
67599;BMP280;62026;39.230;9.122;2023-08-08T01:55:49;101156.75;;;21.11
67599;BMP280;62026;39.230;9.122;2023-08-08T01:58:15;101153.31;;;21.05
67599;BMP280;62026;39.230;9.122;2023-08-08T02:00:41;101158.38;;;21.07
67599;BMP280;62026;39.230;9.122;2023-08-08T02:03:10;101157.88;;;21.05
67599;BMP280;62026;39.230;9.122;2023-08-08T02:05:36;101154.38;;;21.04
67599;BMP280;62026;39.230;9.122;2023-08-08T02:08:03;101150.91;;;21.04
67599;BMP280;62026;39.230;9.122;2023-08-08T02:10:30;101143.06;;;21.02
67599;BMP280;62026;39.230;9.122;2023-08-08T02:12:56;101142.28;;;21.02
67599;BMP280;62026;39.230;9.122;2023-08-08T02:15:22;101142.03;;;20.98
67599;BMP280;62026;39.230;9.122;2023-08-08T02:17:50;101142.84;;;20.99
67599;BMP280;62026;39.230;9.122;2023-08-08T02:20:16;101145.00;;;20.97
67599;BMP280;62026;39.230;9.122;2023-08-08T02:22:44;101146.84;;;21.01
67599;BMP280;62026;39.230;9.122;2023-08-08T02:25:10;101146.34;;;21.04
67599;BMP280;62026;39.230;9.122;2023-08-08T02:27:36;101143.06;;;21.02
67599;BMP280;62026;39.230;9.122;2023-08-08T02:30:02;101137.44;;;21.09
67599;BMP280;62026;39.230;9.122;2023-08-08T02:32:28;101134.22;;;21.07
67599;BMP280;62026;39.230;9.122;2023-08-08T02:34:54;101154.63;;;21.13
67599;BMP280;62026;39.230;9.122;2023-08-08T02:37:20;101143.31;;;21.11
67599;BMP280;62026;39.230;9.122;2023-08-08T02:39:46;101152.50;;;21.05
67599;BMP280;62026;39.230;9.122;2023-08-08T02:42:15;101147.09;;;21.10
67599;BMP280;62026;39.230;9.122;2023-08-08T02:44:42;101143.63;;;21.09
67599;BMP280;62026;39.230;9.122;2023-08-08T02:47:08;101147.66;;;21.12
67599;BMP280;62026;39.230;9.122;2023-08-08T02:49:34;101143.63;;;21.09
67599;BMP280;62026;39.230;9.122;2023-08-08T02:52:01;101144.97;;;21.07
67599;BMP280;62026;39.230;9.122;2023-08-08T02:54:30;101142.03;;;20.98
67599;BMP280;62026;39.230;9.122;2023-08-08T02:56:56;101143.38;;;21.01
67599;BMP280;62026;39.230;9.122;2023-08-08T02:59:23;101144.16;;;21.01
67599;BMP280;62026;39.230;9.122;2023-08-08T03:01:51;101142.56;;;21.00
67599;BMP280;62026;39.230;9.122;2023-08-08T03:04:18;101141.22;;;20.98
67599;BMP280;62026;39.230;9.122;2023-08-08T03:06:45;101142.56;;;20.95
67599;BMP280;62026;39.230;9.122;2023-08-08T03:09:11;101142.31;;;20.97
67599;BMP280;62026;39.230;9.122;2023-08-08T03:11:38;101142.56;;;20.95
67599;BMP280;62026;39.230;9.122;2023-08-08T03:14:08;101143.13;;;20.92
67599;BMP280;62026;39.230;9.122;2023-08-08T03:16:36;101144.47;;;20.90
67599;BMP280;62026;39.230;9.122;2023-08-08T03:19:03;101134.81;;;20.83
67599;BMP280;62026;39.230;9.122;2023-08-08T03:21:29;101142.88;;;20.83
67599;BMP280;62026;39.230;9.122;2023-08-08T03:23:56;101136.66;;;20.88
67599;BMP280;62026;39.230;9.122;2023-08-08T03:26:22;101140.19;;;20.83
67599;BMP280;62026;39.230;9.122;2023-08-08T03:28:48;101141.22;;;20.88
67599;BMP280;62026;39.230;9.122;2023-08-08T03:31:24;101140.44;;;20.87
67599;BMP280;62026;39.230;9.122;2023-08-08T03:33:52;101137.50;;;20.83
67599;BMP280;62026;39.230;9.122;2023-08-08T03:36:17;101136.41;;;20.84
67599;BMP280;62026;39.230;9.122;2023-08-08T03:38:43;101131.59;;;20.81
67599;BMP280;62026;39.230;9.122;2023-08-08T03:41:12;101125.94;;;20.83
67599;BMP280;62026;39.230;9.122;2023-08-08T03:43:39;101130.50;;;20.77
67599;BMP280;62026;39.230;9.122;2023-08-08T03:46:06;101127.03;;;20.82
67599;BMP280;62026;39.230;9.122;2023-08-08T03:48:32;101126.22;;;20.71
67599;BMP280;62026;39.230;9.122;2023-08-08T03:50:58;101134.25;;;20.76
67599;BMP280;62026;39.230;9.122;2023-08-08T03:53:24;101132.13;;;20.78
67599;BMP280;62026;39.230;9.122;2023-08-08T03:55:50;101136.41;;;20.79
67599;BMP280;62026;39.230;9.122;2023-08-08T03:58:17;101146.34;;;20.79
67599;BMP280;62026;39.230;9.122;2023-08-08T04:00:43;101134.00;;;20.83
67599;BMP280;62026;39.230;9.122;2023-08-08T04:03:16;101135.88;;;20.77
67599;BMP280;62026;39.230;9.122;2023-08-08T04:05:47;101139.63;;;20.76
67599;BMP280;62026;39.230;9.122;2023-08-08T04:08:16;101136.69;;;20.78
67599;BMP280;62026;39.230;9.122;2023-08-08T04:10:43;101142.31;;;20.71
67599;BMP280;62026;39.230;9.122;2023-08-08T04:13:12;101146.34;;;20.74
67599;BMP280;62026;39.230;9.122;2023-08-08T04:15:38;101146.09;;;20.75
67599;BMP280;62026;39.230;9.122;2023-08-08T04:18:06;101163.25;;;20.74
67599;BMP280;62026;39.230;9.122;2023-08-08T04:20:33;101158.19;;;20.68
67599;BMP280;62026;39.230;9.122;2023-08-08T04:23:00;101167.56;;;20.65
67599;BMP280;62026;39.230;9.122;2023-08-08T04:25:27;101179.31;;;20.64
67599;BMP280;62026;39.230;9.122;2023-08-08T04:27:53;101172.91;;;20.60
67599;BMP280;62026;39.230;9.122;2023-08-08T04:30:19;101173.97;;;20.64
67599;BMP280;62026;39.230;9.122;2023-08-08T04:32:45;101176.69;;;20.59
67599;BMP280;62026;39.230;9.122;2023-08-08T04:35:11;101175.88;;;20.59
67599;BMP280;62026;39.230;9.122;2023-08-08T04:37:37;101183.38;;;20.62
67599;BMP280;62026;39.230;9.122;2023-08-08T04:40:04;101184.19;;;20.62
67599;BMP280;62026;39.230;9.122;2023-08-08T04:42:30;101180.66;;;20.57
67599;BMP280;62026;39.230;9.122;2023-08-08T04:44:56;101182.28;;;20.53
67599;BMP280;62026;39.230;9.122;2023-08-08T04:47:22;101190.31;;;20.47
67599;BMP280;62026;39.230;9.122;2023-08-08T04:49:48;101191.94;;;20.48
67599;BMP280;62026;39.230;9.122;2023-08-08T04:52:14;101189.81;;;20.45
67599;BMP280;62026;39.230;9.122;2023-08-08T04:54:40;101188.44;;;20.43
67599;BMP280;62026;39.230;9.122;2023-08-08T04:57:06;101196.75;;;20.41
67599;BMP280;62026;39.230;9.122;2023-08-08T04:59:32;101193.53;;;20.39
67599;BMP280;62026;39.230;9.122;2023-08-08T05:01:58;101194.88;;;20.37
67599;BMP280;62026;39.230;9.122;2023-08-08T05:04:24;101202.94;;;20.42
67599;BMP280;62026;39.230;9.122;2023-08-08T05:06:50;101205.88;;;20.40
67599;BMP280;62026;39.230;9.122;2023-08-08T05:09:16;101204.00;;;20.41
67599;BMP280;62026;39.230;9.122;2023-08-08T05:11:42;101197.03;;;20.45
67599;BMP280;62026;39.230;9.122;2023-08-08T05:14:08;101196.50;;;20.48
67599;BMP280;62026;39.230;9.122;2023-08-08T05:16:34;101200.25;;;20.57
67599;BMP280;62026;39.230;9.122;2023-08-08T05:19:00;101205.09;;;20.60
67599;BMP280;62026;39.230;9.122;2023-08-08T05:21:26;101208.31;;;20.62
67599;BMP280;62026;39.230;9.122;2023-08-08T05:23:51;101205.63;;;20.72
67599;BMP280;62026;39.230;9.122;2023-08-08T05:26:17;101205.38;;;20.79
67599;BMP280;62026;39.230;9.122;2023-08-08T05:28:43;101205.66;;;20.88
67599;BMP280;62026;39.230;9.122;2023-08-08T05:31:09;101208.31;;;21.03
67599;BMP280;62026;39.230;9.122;2023-08-08T05:33:36;101208.34;;;21.13
67599;BMP280;62026;39.230;9.122;2023-08-08T05:36:02;101216.38;;;21.28
67599;BMP280;62026;39.230;9.122;2023-08-08T05:38:28;101215.81;;;21.36
67599;BMP280;62026;39.230;9.122;2023-08-08T05:40:54;101213.06;;;21.46
67599;BMP280;62026;39.230;9.122;2023-08-08T05:43:20;101219.50;;;21.55
67599;BMP280;62026;39.230;9.122;2023-08-08T05:45:47;101221.63;;;21.63
67599;BMP280;62026;39.230;9.122;2023-08-08T05:48:13;101229.97;;;21.72
67599;BMP280;62026;39.230;9.122;2023-08-08T05:50:40;101219.69;;;21.79
67599;BMP280;62026;39.230;9.122;2023-08-08T05:53:07;101218.31;;;21.87
67599;BMP280;62026;39.230;9.122;2023-08-08T05:55:33;101225.28;;;21.93
67599;BMP280;62026;39.230;9.122;2023-08-08T05:57:59;101223.59;;;22.07
67599;BMP280;62026;39.230;9.122;2023-08-08T06:00:25;101231.66;;;22.12
67599;BMP280;62026;39.230;9.122;2023-08-08T06:02:51;101220.31;;;22.20
67599;BMP280;62026;39.230;9.122;2023-08-08T06:05:17;101229.91;;;22.31
67599;BMP280;62026;39.230;9.122;2023-08-08T06:07:43;101219.84;;;22.47
67599;BMP280;62026;39.230;9.122;2023-08-08T06:10:10;101226.47;;;22.60
67599;BMP280;62026;39.230;9.122;2023-08-08T06:12:36;101220.00;;;22.66
67599;BMP280;62026;39.230;9.122;2023-08-08T06:15:03;101224.47;;;22.75
67599;BMP280;62026;39.230;9.122;2023-08-08T06:17:32;101224.19;;;22.82
67599;BMP280;62026;39.230;9.122;2023-08-08T06:19:58;101219.66;;;23.01
67599;BMP280;62026;39.230;9.122;2023-08-08T06:22:24;101222.50;;;23.15
67599;BMP280;62026;39.230;9.122;2023-08-08T06:24:50;101224.25;;;23.30
67599;BMP280;62026;39.230;9.122;2023-08-08T06:27:16;101224.81;;;23.27
67599;BMP280;62026;39.230;9.122;2023-08-08T06:29:42;101220.59;;;23.39
67599;BMP280;62026;39.230;9.122;2023-08-08T06:32:08;101230.50;;;23.49
67599;BMP280;62026;39.230;9.122;2023-08-08T06:34:34;101228.75;;;23.58
67599;BMP280;62026;39.230;9.122;2023-08-08T06:37:00;101228.59;;;23.73
67599;BMP280;62026;39.230;9.122;2023-08-08T06:39:26;101234.88;;;23.87
67599;BMP280;62026;39.230;9.122;2023-08-08T06:41:52;101239.50;;;24.01
67599;BMP280;62026;39.230;9.122;2023-08-08T06:44:33;101239.41;;;24.11
67599;BMP280;62026;39.230;9.122;2023-08-08T06:46:59;101236.13;;;24.14
67599;BMP280;62026;39.230;9.122;2023-08-08T06:49:25;101241.28;;;24.29
67599;BMP280;62026;39.230;9.122;2023-08-08T06:51:51;101240.72;;;24.32
67599;BMP280;62026;39.230;9.122;2023-08-08T06:54:17;101232.38;;;24.47
67599;BMP280;62026;39.230;9.122;2023-08-08T06:56:43;101240.50;;;24.93
67599;BMP280;62026;39.230;9.122;2023-08-08T06:59:09;101233.91;;;25.13
67599;BMP280;62026;39.230;9.122;2023-08-08T07:01:35;101239.63;;;25.25
67599;BMP280;62026;39.230;9.122;2023-08-08T07:04:01;101233.13;;;25.12
67599;BMP280;62026;39.230;9.122;2023-08-08T07:06:27;101230.72;;;25.11
67599;BMP280;62026;39.230;9.122;2023-08-08T07:08:53;101233.50;;;25.20
67599;BMP280;62026;39.230;9.122;2023-08-08T07:11:19;101240.72;;;25.24
67599;BMP280;62026;39.230;9.122;2023-08-08T07:13:46;101228.31;;;25.23
67599;BMP280;62026;39.230;9.122;2023-08-08T07:16:12;101237.94;;;25.29
67599;BMP280;62026;39.230;9.122;2023-08-08T07:18:38;101230.44;;;25.53
67599;BMP280;62026;39.230;9.122;2023-08-08T07:21:04;101233.13;;;25.53
67599;BMP280;62026;39.230;9.122;2023-08-08T07:23:31;101225.91;;;25.49
67599;BMP280;62026;39.230;9.122;2023-08-08T07:25:57;101225.69;;;25.59
67599;BMP280;62026;39.230;9.122;2023-08-08T07:28:24;101227.88;;;25.71
67599;BMP280;62026;39.230;9.122;2023-08-08T07:30:50;101229.88;;;26.01
67599;BMP280;62026;39.230;9.122;2023-08-08T07:33:16;101234.56;;;25.87
67599;BMP280;62026;39.230;9.122;2023-08-08T07:35:42;101226.84;;;25.80
67599;BMP280;62026;39.230;9.122;2023-08-08T07:38:08;101226.03;;;25.93
67599;BMP280;62026;39.230;9.122;2023-08-08T07:40:34;101231.78;;;26.01
67599;BMP280;62026;39.230;9.122;2023-08-08T07:43:01;101235.25;;;26.15
67599;BMP280;62026;39.230;9.122;2023-08-08T07:45:27;101243.56;;;26.18
67599;BMP280;62026;39.230;9.122;2023-08-08T07:47:53;101245.56;;;26.26
67599;BMP280;62026;39.230;9.122;2023-08-08T07:50:19;101247.31;;;26.31
67599;BMP280;62026;39.230;9.122;2023-08-08T07:52:45;101242.09;;;26.34
67599;BMP280;62026;39.230;9.122;2023-08-08T07:55:11;101251.44;;;26.51
67599;BMP280;62026;39.230;9.122;2023-08-08T07:57:37;101251.25;;;26.47
67599;BMP280;62026;39.230;9.122;2023-08-08T08:00:04;101244.31;;;26.55
67599;BMP280;62026;39.230;9.122;2023-08-08T08:02:39;101248.31;;;26.66
67599;BMP280;62026;39.230;9.122;2023-08-08T08:05:07;101243.84;;;26.53
67599;BMP280;62026;39.230;9.122;2023-08-08T08:07:37;101240.50;;;26.56
67599;BMP280;62026;39.230;9.122;2023-08-08T08:10:06;101248.78;;;26.90
67599;BMP280;62026;39.230;9.122;2023-08-08T08:12:33;101250.25;;;26.96
67599;BMP280;62026;39.230;9.122;2023-08-08T08:14:59;101242.50;;;27.20
67599;BMP280;62026;39.230;9.122;2023-08-08T08:17:25;101242.22;;;27.31
67599;BMP280;62026;39.230;9.122;2023-08-08T08:19:53;101246.72;;;27.44
67599;BMP280;62026;39.230;9.122;2023-08-08T08:22:19;101244.38;;;27.68
67599;BMP280;62026;39.230;9.122;2023-08-08T08:24:45;101241.50;;;27.73
67599;BMP280;62026;39.230;9.122;2023-08-08T08:27:12;101238.47;;;27.83
67599;BMP280;62026;39.230;9.122;2023-08-08T08:29:39;101246.28;;;28.11
67599;BMP280;62026;39.230;9.122;2023-08-08T08:32:05;101245.19;;;27.94
67599;BMP280;62026;39.230;9.122;2023-08-08T08:34:31;101241.63;;;28.11
67599;BMP280;62026;39.230;9.122;2023-08-08T08:36:57;101238.78;;;28.16
67599;BMP280;62026;39.230;9.122;2023-08-08T08:39:23;101246.28;;;28.28
67599;BMP280;62026;39.230;9.122;2023-08-08T08:42:00;101243.84;;;28.35
67599;BMP280;62026;39.230;9.122;2023-08-08T08:44:31;101245.66;;;28.69
67599;BMP280;62026;39.230;9.122;2023-08-08T08:47:07;101245.34;;;28.70
67599;BMP280;62026;39.230;9.122;2023-08-08T08:49:38;101249.00;;;28.74
67599;BMP280;62026;39.230;9.122;2023-08-08T08:52:05;101244.75;;;28.94
67599;BMP280;62026;39.230;9.122;2023-08-08T08:54:32;101245.38;;;29.00
67599;BMP280;62026;39.230;9.122;2023-08-08T08:56:59;101233.50;;;29.04
67599;BMP280;62026;39.230;9.122;2023-08-08T08:59:25;101238.81;;;29.01
67599;BMP280;62026;39.230;9.122;2023-08-08T09:01:51;101232.88;;;29.28
67599;BMP280;62026;39.230;9.122;2023-08-08T09:04:19;101235.78;;;29.23
67599;BMP280;62026;39.230;9.122;2023-08-08T09:06:47;101230.50;;;29.47
67599;BMP280;62026;39.230;9.122;2023-08-08T09:09:14;101229.56;;;29.43
67599;BMP280;62026;39.230;9.122;2023-08-08T09:11:50;101236.34;;;29.58
67599;BMP280;62026;39.230;9.122;2023-08-08T09:14:22;101234.19;;;29.63
67599;BMP280;62026;39.230;9.122;2023-08-08T09:16:51;101232.78;;;29.45
67599;BMP280;62026;39.230;9.122;2023-08-08T09:19:21;101227.72;;;29.35
67599;BMP280;62026;39.230;9.122;2023-08-08T09:21:49;101231.03;;;29.61
67599;BMP280;62026;39.230;9.122;2023-08-08T09:24:15;101230.16;;;30.02
67599;BMP280;62026;39.230;9.122;2023-08-08T09:26:44;101226.44;;;30.07
67599;BMP280;62026;39.230;9.122;2023-08-08T09:29:14;101230.06;;;29.45
67599;BMP280;62026;39.230;9.122;2023-08-08T09:31:41;101228.56;;;30.01
67599;BMP280;62026;39.230;9.122;2023-08-08T09:34:07;101232.88;;;29.90
67599;BMP280;62026;39.230;9.122;2023-08-08T09:36:33;101229.44;;;29.81
67599;BMP280;62026;39.230;9.122;2023-08-08T09:39:00;101232.06;;;30.22
67599;BMP280;62026;39.230;9.122;2023-08-08T09:41:27;101225.47;;;29.58
67599;BMP280;62026;39.230;9.122;2023-08-08T09:43:53;101233.75;;;28.90
67599;BMP280;62026;39.230;9.122;2023-08-08T09:46:21;101232.16;;;28.89
67599;BMP280;62026;39.230;9.122;2023-08-08T09:48:48;101227.75;;;29.06
67599;BMP280;62026;39.230;9.122;2023-08-08T09:51:14;101232.03;;;28.77
67599;BMP280;62026;39.230;9.122;2023-08-08T09:53:42;101233.72;;;28.61
67599;BMP280;62026;39.230;9.122;2023-08-08T09:56:08;101231.84;;;28.53
67599;BMP280;62026;39.230;9.122;2023-08-08T09:58:34;101230.19;;;28.61
67599;BMP280;62026;39.230;9.122;2023-08-08T10:01:00;101233.72;;;28.61
67599;BMP280;62026;39.230;9.122;2023-08-08T10:03:27;101240.69;;;29.09
67599;BMP280;62026;39.230;9.122;2023-08-08T10:05:54;101232.63;;;29.21
67599;BMP280;62026;39.230;9.122;2023-08-08T10:08:21;101240.56;;;29.26
67599;BMP280;62026;39.230;9.122;2023-08-08T10:10:50;101232.88;;;29.69
67599;BMP280;62026;39.230;9.122;2023-08-08T10:13:25;101241.66;;;29.54
67599;BMP280;62026;39.230;9.122;2023-08-08T10:15:53;101235.97;;;28.88
67599;BMP280;62026;39.230;9.122;2023-08-08T10:18:24;101232.22;;;28.72
67599;BMP280;62026;39.230;9.122;2023-08-08T10:20:51;101232.28;;;28.55
67599;BMP280;62026;39.230;9.122;2023-08-08T10:23:19;101234.59;;;28.36
67599;BMP280;62026;39.230;9.122;2023-08-08T10:25:47;101228.94;;;28.49
67599;BMP280;62026;39.230;9.122;2023-08-08T10:28:17;101244.22;;;27.90
67599;BMP280;62026;39.230;9.122;2023-08-08T10:30:57;101241.97;;;27.84
67599;BMP280;62026;39.230;9.122;2023-08-08T10:33:39;101240.22;;;27.96
67599;BMP280;62026;39.230;9.122;2023-08-08T10:36:07;101237.97;;;27.98
67599;BMP280;62026;39.230;9.122;2023-08-08T10:38:49;101238.16;;;28.11
67599;BMP280;62026;39.230;9.122;2023-08-08T10:41:22;101235.59;;;27.80
67599;BMP280;62026;39.230;9.122;2023-08-08T10:43:54;101247.28;;;27.97
67599;BMP280;62026;39.230;9.122;2023-08-08T10:46:27;101242.31;;;27.82
67599;BMP280;62026;39.230;9.122;2023-08-08T10:48:57;101237.31;;;27.58
67599;BMP280;62026;39.230;9.122;2023-08-08T10:51:45;101248.16;;;27.50
67599;BMP280;62026;39.230;9.122;2023-08-08T10:54:23;101245.78;;;27.48
67599;BMP280;62026;39.230;9.122;2023-08-08T10:56:57;101250.13;;;27.84
67599;BMP280;62026;39.230;9.122;2023-08-08T10:59:36;101236.56;;;27.75
67599;BMP280;62026;39.230;9.122;2023-08-08T11:02:03;101245.84;;;27.91
67599;BMP280;62026;39.230;9.122;2023-08-08T11:04:30;101240.22;;;27.71
67599;BMP280;62026;39.230;9.122;2023-08-08T11:06:58;101236.19;;;27.42
67599;BMP280;62026;39.230;9.122;2023-08-08T11:09:24;101237.81;;;27.52
67599;BMP280;62026;39.230;9.122;2023-08-08T11:11:52;101244.84;;;27.87
67599;BMP280;62026;39.230;9.122;2023-08-08T11:14:21;101245.63;;;27.45
67599;BMP280;62026;39.230;9.122;2023-08-08T11:16:50;101235.13;;;27.60
67599;BMP280;62026;39.230;9.122;2023-08-08T11:19:17;101233.78;;;27.49
67599;BMP280;62026;39.230;9.122;2023-08-08T11:21:46;101236.84;;;27.65
67599;BMP280;62026;39.230;9.122;2023-08-08T11:24:13;101233.34;;;27.73
67599;BMP280;62026;39.230;9.122;2023-08-08T11:26:42;101243.72;;;27.62
67599;BMP280;62026;39.230;9.122;2023-08-08T11:29:09;101228.03;;;27.25
67599;BMP280;62026;39.230;9.122;2023-08-08T11:31:36;101229.81;;;27.55
67599;BMP280;62026;39.230;9.122;2023-08-08T11:34:04;101224.19;;;27.35
67599;BMP280;62026;39.230;9.122;2023-08-08T11:36:33;101230.72;;;27.25
67599;BMP280;62026;39.230;9.122;2023-08-08T11:39:04;101217.72;;;27.05
67599;BMP280;62026;39.230;9.122;2023-08-08T11:41:37;101217.59;;;26.70
67599;BMP280;62026;39.230;9.122;2023-08-08T11:44:05;101211.53;;;27.04
67599;BMP280;62026;39.230;9.122;2023-08-08T11:46:31;101217.19;;;26.86
67599;BMP280;62026;39.230;9.122;2023-08-08T11:49:07;101205.34;;;26.73
67599;BMP280;62026;39.230;9.122;2023-08-08T11:51:34;101206.78;;;26.70
67599;BMP280;62026;39.230;9.122;2023-08-08T11:54:02;101217.59;;;27.01
67599;BMP280;62026;39.230;9.122;2023-08-08T11:56:33;101203.19;;;26.53
67599;BMP280;62026;39.230;9.122;2023-08-08T11:59:00;101209.22;;;26.27
67599;BMP280;62026;39.230;9.122;2023-08-08T12:01:29;101213.91;;;26.35
67599;BMP280;62026;39.230;9.122;2023-08-08T12:03:56;101211.69;;;26.37
67599;BMP280;62026;39.230;9.122;2023-08-08T12:06:27;101208.22;;;26.68
67599;BMP280;62026;39.230;9.122;2023-08-08T12:08:54;101198.19;;;26.68
67599;BMP280;62026;39.230;9.122;2023-08-08T12:11:21;101207.97;;;26.56
67599;BMP280;62026;39.230;9.122;2023-08-08T12:13:47;101206.97;;;26.52
67599;BMP280;62026;39.230;9.122;2023-08-08T12:16:14;101193.16;;;26.31
67599;BMP280;62026;39.230;9.122;2023-08-08T12:18:41;101195.47;;;26.15
67599;BMP280;62026;39.230;9.122;2023-08-08T12:21:08;101190.66;;;26.12
67599;BMP280;62026;39.230;9.122;2023-08-08T12:23:35;101193.25;;;26.39
67599;BMP280;62026;39.230;9.122;2023-08-08T12:26:05;101204.13;;;26.26
67599;BMP280;62026;39.230;9.122;2023-08-08T12:28:32;101181.34;;;26.27
67599;BMP280;62026;39.230;9.122;2023-08-08T12:30:58;101186.41;;;26.20
67599;BMP280;62026;39.230;9.122;2023-08-08T12:33:24;101201.84;;;26.19
67599;BMP280;62026;39.230;9.122;2023-08-08T12:35:50;101180.41;;;26.23
67599;BMP280;62026;39.230;9.122;2023-08-08T12:38:16;101194.72;;;26.23
67599;BMP280;62026;39.230;9.122;2023-08-08T12:40:43;101177.78;;;26.18
67599;BMP280;62026;39.230;9.122;2023-08-08T12:43:10;101190.09;;;26.24
67599;BMP280;62026;39.230;9.122;2023-08-08T12:45:44;101184.81;;;26.50
67599;BMP280;62026;39.230;9.122;2023-08-08T12:48:11;101185.13;;;26.39
67599;BMP280;62026;39.230;9.122;2023-08-08T12:50:37;101169.94;;;26.30
67599;BMP280;62026;39.230;9.122;2023-08-08T12:53:04;101165.47;;;26.65
67599;BMP280;62026;39.230;9.122;2023-08-08T12:55:31;101159.09;;;26.61
67599;BMP280;62026;39.230;9.122;2023-08-08T12:57:57;101160.88;;;26.74
67599;BMP280;62026;39.230;9.122;2023-08-08T13:00:23;101165.25;;;26.92
67599;BMP280;62026;39.230;9.122;2023-08-08T13:02:49;101171.13;;;26.86
67599;BMP280;62026;39.230;9.122;2023-08-08T13:05:15;101153.66;;;26.61
67599;BMP280;62026;39.230;9.122;2023-08-08T13:07:41;101165.28;;;26.53
67599;BMP280;62026;39.230;9.122;2023-08-08T13:10:07;101164.84;;;26.68
67599;BMP280;62026;39.230;9.122;2023-08-08T13:12:33;101164.63;;;26.25
67599;BMP280;62026;39.230;9.122;2023-08-08T13:14:59;101155.06;;;26.58
67599;BMP280;62026;39.230;9.122;2023-08-08T13:17:25;101168.63;;;25.83
67599;BMP280;62026;39.230;9.122;2023-08-08T13:19:51;101156.06;;;26.31
67599;BMP280;62026;39.230;9.122;2023-08-08T13:22:17;101158.28;;;26.29
67599;BMP280;62026;39.230;9.122;2023-08-08T13:24:43;101158.63;;;26.36
67599;BMP280;62026;39.230;9.122;2023-08-08T13:27:09;101160.09;;;26.20
67599;BMP280;62026;39.230;9.122;2023-08-08T13:29:35;101150.97;;;26.08
67599;BMP280;62026;39.230;9.122;2023-08-08T13:32:01;101147.78;;;25.83
67599;BMP280;62026;39.230;9.122;2023-08-08T13:34:27;101151.63;;;26.35
67599;BMP280;62026;39.230;9.122;2023-08-08T13:36:53;101145.09;;;26.14
67599;BMP280;62026;39.230;9.122;2023-08-08T13:39:20;101147.97;;;26.09
67599;BMP280;62026;39.230;9.122;2023-08-08T13:41:46;101155.69;;;26.24
67599;BMP280;62026;39.230;9.122;2023-08-08T13:44:12;101148.13;;;26.13
67599;BMP280;62026;39.230;9.122;2023-08-08T13:46:38;101146.88;;;26.10
67599;BMP280;62026;39.230;9.122;2023-08-08T13:49:04;101152.63;;;26.39
67599;BMP280;62026;39.230;9.122;2023-08-08T13:51:30;101147.91;;;26.23
67599;BMP280;62026;39.230;9.122;2023-08-08T13:53:56;101144.63;;;25.90
67599;BMP280;62026;39.230;9.122;2023-08-08T13:56:22;101149.28;;;25.76
67599;BMP280;62026;39.230;9.122;2023-08-08T13:58:49;101150.16;;;26.07